Latest Weather Observations for Marree Airport

IDS60801

Issued at 12:31 pm CST Sunday 30 April 2017 (issued every 30 minutes, with the page automatically refreshed every 10 minutes)

About weather observations | Map of weather stations | Latest weather observations for SA | Other Formats
Station Details ID: 017126 Name: MARREE AERO Lat: -29.66 Lon: 138.07 Height: 50.0 m
Data from the previous 72 hours. | See also: Recent months at Marree Airport
Date/Time
CST
Temp
°C
App
Temp
°C
Dew
Point
°C
Rel
Hum
%
Delta-T
°C
Wind Press
QNH
hPa
Press
MSL
hPa
Rain since
9am
mm
Dir  Spd
km/h
Gust
km/h
Spd
kts
Gust
kts
30/12:30pm 19.1 15.0 8.7 51 5.4 ENE 20 26 11 14 1021.3 1021.1 0.0
30/12:00pm 18.9 15.5 9.1 53 5.1 ENE 17 24 9 13 1022.0 1021.8 0.0
30/11:30am 18.0 13.6 9.1 56 4.6 ENE 22 26 12 14 1022.4 1022.3 0.0
30/11:00am 17.7 13.6 8.8 56 4.6 ENE 20 28 11 15 1022.8 1022.7 0.0
30/10:30am 17.3 12.9 9.0 58 4.3 ENE 22 28 12 15 1023.1 1023.0 0.0
30/10:00am 16.6 12.7 9.5 63 3.7 E 20 26 11 14 1023.0 1022.9 0.0
30/09:30am 15.9 12.7 9.8 67 3.2 E 17 22 9 12 1023.5 1023.4 0.0
30/09:00am 14.2 12.8 10.8 80 1.8 SE 9 13 5 7 1023.9 1023.8 0.0
30/08:30am 13.6 12.6 11.1 85 1.3 SSE 7 11 4 6 1023.7 1023.6 0.0
30/08:00am 12.6 11.4 11.7 94 0.5 SSE 9 13 5 7 1023.4 1023.3 0.0
30/07:30am 12.0 10.3 11.2 95 0.4 SSE 11 13 6 7 1022.9 1022.8 0.0
30/07:00am 11.5 8.5 10.7 95 0.4 SSE 17 19 9 10 1022.3 1022.2 0.0
30/06:30am 10.9 8.6 10.3 96 0.3 S 13 15 7 8 1022.8 1022.7 0.0
30/06:00am 10.8 8.1 10.2 96 0.3 SSE 15 17 8 9 1022.1 1022.0 0.0
30/05:30am 11.0 8.3 10.4 96 0.3 SSE 15 17 8 9 1022.1 1022.0 0.0
30/05:00am 11.5 8.9 10.7 95 0.4 SE 15 17 8 9 1022.0 1021.8 0.0
30/04:30am 11.9 9.4 11.1 95 0.4 ESE 15 17 8 9 1022.0 1021.8 0.0
30/04:00am 11.4 9.9 10.5 94 0.5 SE 9 11 5 6 1022.1 1022.0 0.0
30/03:30am 13.2 11.7 10.6 84 1.4 S 9 11 5 6 1021.9 1021.7 0.0
30/03:00am 12.7 11.9 11.1 90 0.8 SSW 6 9 3 5 1022.0 1021.8 0.0
30/02:30am 13.4 12.0 10.9 85 1.3 S 9 9 5 5 1022.1 1022.0 0.0
30/02:00am 13.4 11.6 10.8 84 1.4 S 11 13 6 7 1022.3 1022.2 0.0
30/01:30am 13.7 11.5 10.9 83 1.5 S 13 15 7 8 1022.6 1022.5 0.0
30/01:00am 13.6 11.5 11.1 85 1.3 SSE 13 15 7 8 1022.3 1022.2 0.0
30/12:30am 13.7 11.9 10.9 83 1.5 S 11 13 6 7 1022.6 1022.5 0.0
30/12:00am 14.4 12.3 11.0 80 1.8 S 13 13 7 7 1022.8 1022.7 0.0
 
Date/Time
CST
Temp
°C
App
Temp
°C
Dew
Point
°C
Rel
Hum
%
Delta-T
°C
Wind Press
QNH
hPa
Press
MSL
hPa
Rain since
9am
mm
Dir  Spd
km/h
Gust
km/h
Spd
kts
Gust
kts
29/11:30pm 14.6 12.4 10.8 78 2.0 S 13 15 7 8 1023.0 1022.9 0.0
29/11:00pm 14.8 12.5 10.6 76 2.2 SSE 13 15 7 8 1023.3 1023.2 0.0
29/10:30pm 15.3 13.1 10.7 74 2.4 SE 13 17 7 9 1023.4 1023.3 0.0
29/10:00pm 15.7 13.1 10.7 72 2.7 SE 15 19 8 10 1023.7 1023.6 0.0
29/09:30pm 16.0 13.2 10.1 68 3.1 SSE 15 17 8 9 1023.5 1023.4 0.0
29/09:00pm 16.4 13.6 10.0 66 3.4 SSE 15 19 8 10 1023.8 1023.7 0.0
29/08:30pm 17.0 13.4 9.7 62 3.8 S 19 20 10 11 1023.7 1023.6 0.0
29/08:00pm 16.6 14.5 9.8 64 3.6 S 11 15 6 8 1023.7 1023.6 0.0
29/07:30pm 17.7 16.4 9.1 57 4.5 S 6 6 3 3 1023.5 1023.4 0.0
29/07:00pm 18.0 16.4 8.6 54 4.9 S 7 9 4 5 1023.3 1023.2 0.0
29/06:30pm 18.2 15.7 8.2 52 5.1 S 11 13 6 7 1023.4 1023.3 0.0
29/06:00pm 19.0 16.8 7.8 48 5.7 SSE 9 11 5 6 1023.3 1023.2 0.0
29/05:30pm 20.1 17.4 7.5 44 6.4 SSE 11 15 6 8 1023.0 1022.9 0.0
29/05:00pm 21.0 17.7 6.2 38 7.5 SE 13 19 7 10 1022.8 1022.7 0.0
29/04:30pm 21.2 18.3 6.3 38 7.5 SSE 11 19 6 10 1022.9 1022.8 0.0
29/04:00pm 21.4 18.5 6.5 38 7.6 ESE 11 20 6 11 1022.9 1022.8 0.0
29/03:30pm 21.5 19.0 6.6 38 7.6 SE 9 17 5 9 1022.9 1022.8 0.0
29/03:00pm 20.8 17.5 6.4 39 7.2 S 13 20 7 11 1023.2 1023.1 0.0
29/02:30pm 20.9 16.9 6.8 40 7.1 SSE 17 26 9 14 1023.2 1023.1 0.0
29/02:00pm 20.6 16.9 6.5 40 7.1 SE 15 22 8 12 1023.4 1023.3 0.0
29/01:30pm 20.7 17.5 7.0 41 7.0 E 13 22 7 12 1023.8 1023.7 0.0
29/01:00pm 19.8 16.8 7.5 45 6.3 E 13 22 7 12 1024.3 1024.2 0.0
29/12:30pm 20.0 16.1 7.1 43 6.5 ESE 17 26 9 14 1025.1 1025.0 0.0
29/12:00pm 19.6 15.2 7.4 45 6.2 ENE 20 28 11 15 1025.7 1025.6 0.0
29/11:30am 18.6 14.4 7.4 48 5.6 ENE 19 32 10 17 1026.2 1026.1 0.0
29/11:00am 17.9 14.9 7.6 51 5.2 ESE 13 17 7 9 1026.4 1026.3 0.0
29/10:30am 17.7 16.2 8.6 55 4.7 SE 6 11 3 6 1026.8 1026.7 0.0
29/10:00am 16.4 15.4 8.9 61 3.9 SE 4 9 2 5 1027.2 1027.1 0.0
29/09:30am 15.7 14.3 9.4 66 3.2 SSE 7 11 4 6 1027.4 1027.3 0.0
29/09:00am 14.8 13.0 9.6 71 2.7 SE 9 11 5 6 1027.3 1027.2 0.0
29/08:30am 13.3 11.5 10.8 85 1.3 SE 11 13 6 7 1027.1 1027.0 0.0
29/08:00am 12.0 10.3 11.2 95 0.4 SSE 11 15 6 8 1026.9 1026.8 0.0
29/07:30am 10.1 8.0 9.6 97 0.2 SSE 11 15 6 8 1026.8 1026.7 0.0
29/07:00am 8.5 5.6 8.2 98 0.1 SSE 13 15 7 8 1026.2 1026.1 0.0
29/06:30am 8.0 5.0 7.6 97 0.2 SE 13 13 7 7 1026.0 1025.9 0.0
29/06:00am 8.1 5.9 7.7 97 0.2 SSE 9 11 5 6 1025.8 1025.7 0.0
29/05:30am 8.3 6.1 7.9 97 0.2 SSE 9 11 5 6 1025.6 1025.5 0.0
29/05:00am 9.1 6.3 8.5 96 0.3 SSE 13 13 7 7 1025.3 1025.2 0.0
29/04:30am 10.4 8.0 9.9 97 0.3 S 13 15 7 8 1024.9 1024.8 0.0
29/04:00am 9.9 7.7 9.3 96 0.3 SSW 11 13 6 7 1025.0 1024.9 0.0
29/03:30am 10.3 8.2 9.7 96 0.3 SSE 11 13 6 7 1025.0 1024.9 0.0
29/03:00am 10.1 7.5 9.5 96 0.3 SSE 13 15 7 8 1025.0 1024.9 0.0
29/02:30am 10.3 7.8 9.7 96 0.3 SSE 13 13 7 7 1025.0 1024.9 0.0
29/02:00am 10.5 8.4 9.7 95 0.4 SE 11 11 6 6 1025.2 1025.1 0.0
29/01:30am 10.9 9.3 10.1 95 0.4 ESE 9 11 5 6 1025.2 1025.1 0.0
29/01:00am 10.8 9.1 10.0 95 0.4 SE 9 11 5 6 1025.2 1025.1 0.0
29/12:30am 11.4 9.9 10.6 95 0.4 SSE 9 11 5 6 1025.5 1025.4 0.0
29/12:00am 12.1 10.4 11.2 94 0.5 S 11 13 6 7 1025.8 1025.7 0.0
 
Date/Time
CST
Temp
°C
App
Temp
°C
Dew
Point
°C
Rel
Hum
%
Delta-T
°C
Wind Press
QNH
hPa
Press
MSL
hPa
Rain since
9am
mm
Dir  Spd
km/h
Gust
km/h
Spd
kts
Gust
kts
28/11:30pm 12.0 9.7 10.4 90 0.8 SSE 13 13 7 7 1026.1 1026.0 0.0
28/11:00pm 12.8 10.6 9.4 80 1.7 SSE 11 13 6 7 1026.3 1026.2 0.0
28/10:30pm 13.7 11.2 9.7 77 2.0 SE 13 15 7 8 1026.7 1026.6 0.0
28/10:00pm 13.7 11.1 9.2 74 2.3 SE 13 15 7 8 1027.0 1026.9 0.0
28/09:30pm 14.3 11.9 8.7 69 2.8 E 11 15 6 8 1027.2 1027.1 0.0
28/09:00pm 15.4 11.9 8.6 64 3.4 S 17 20 9 11 1026.7 1026.6 0.0
28/08:30pm 15.7 11.7 8.2 61 3.8 S 19 22 10 12 1026.4 1026.3 0.0
28/08:00pm 16.1 12.1 8.1 59 4.0 SSW 19 22 10 12 1026.2 1026.1 0.0
28/07:30pm 16.4 13.0 7.6 56 4.4 SSW 15 20 8 11 1026.3 1026.2 0.0
28/07:00pm 17.0 13.5 7.1 52 4.9 S 15 22 8 12 1026.1 1026.0 0.0
28/06:30pm 17.1 14.2 6.6 50 5.2 S 11 13 6 7 1025.7 1025.6 0.0
28/06:00pm 18.2 14.9 6.4 46 5.8 S 13 17 7 9 1025.5 1025.4 0.0
28/05:30pm 19.2 15.4 5.6 41 6.7 SSE 15 20 8 11 1025.2 1025.1 0.0
28/05:00pm 20.1 15.8 5.4 38 7.2 SE 17 22 9 12 1025.0 1024.9 0.0
28/04:30pm 20.0 15.7 5.3 38 7.2 SE 17 22 9 12 1024.9 1024.8 0.0
28/04:00pm 20.4 16.4 4.8 36 7.6 SSE 15 24 8 13 1025.2 1025.1 0.0
28/03:30pm 20.3 16.1 5.5 38 7.3 SSE 17 24 9 13 1025.2 1025.1 0.0
28/03:00pm 20.3 16.3 5.1 37 7.4 SE 15 22 8 12 1025.4 1025.3 0.0
28/02:30pm 20.1 16.2 5.4 38 7.2 SSE 15 26 8 14 1025.4 1025.3 0.0
28/02:00pm 20.1 16.3 5.7 39 7.1 S 15 24 8 13 1026.0 1025.9 0.0
28/01:30pm 19.6 16.1 5.3 39 7.0 ESE 13 22 7 12 1026.4 1026.3 0.0
28/01:00pm 19.2 16.0 4.9 39 6.9 SE 11 19 6 10 1026.9 1026.8 0.0
28/12:30pm 19.3 16.2 5.7 41 6.7 S 11 24 6 13 1027.1 1027.0 0.0
28/12:00pm 19.1 16.1 5.9 42 6.5 SSE 11 19 6 10 1027.9 1027.8 0.0
28/11:30am 18.1 14.2 5.3 43 6.2 SSE 15 22 8 12 1028.4 1028.3 0.0
28/11:00am 18.0 14.4 5.2 43 6.2 SE 13 24 7 13 1028.9 1028.8 0.0
28/10:30am 17.8 14.4 5.7 45 5.9 ESE 13 20 7 11 1029.3 1029.2 0.0
28/10:00am 17.4 12.8 5.7 46 5.7 SE 19 26 10 14 1029.4 1029.3 0.0
28/09:30am 16.3 12.8 7.0 54 4.6 SE 15 20 8 11 1029.6 1029.5 0.0
28/09:00am 14.8 11.9 8.1 64 3.3 SE 13 17 7 9 1029.6 1029.5 0.0
28/08:30am 12.7 9.5 8.6 76 2.0 SSE 15 19 8 10 1029.3 1029.2 0.0
28/08:00am 10.8 8.7 9.9 94 0.5 SSE 11 13 6 7 1029.1 1029.0 0.0
28/07:30am 8.9 6.4 8.3 96 0.3 SSE 11 13 6 7 1028.7 1028.6 0.0
28/07:00am 7.2 4.4 6.8 97 0.2 SE 11 13 6 7 1028.5 1028.4 0.0
28/06:30am 7.1 4.2 6.5 96 0.3 SE 11 11 6 6 1028.4 1028.3 0.0
28/06:00am 7.5 4.7 6.9 96 0.3 SE 11 13 6 7 1028.1 1028.0 0.0
28/05:30am 8.1 4.7 7.5 96 0.3 SE 15 17 8 9 1027.9 1027.8 0.0
28/05:00am 8.0 4.9 7.4 96 0.3 SE 13 15 7 8 1027.6 1027.5 0.0
28/04:30am 8.1 5.1 7.5 96 0.3 SE 13 13 7 7 1027.5 1027.4 0.0
28/04:00am 8.0 6.1 7.4 96 0.3 SE 7 9 4 5 1027.3 1027.2 0.0
28/03:30am 8.5 5.9 7.9 96 0.3 SSE 11 13 6 7 1027.1 1027.0 0.0
28/03:00am 8.7 6.2 8.1 96 0.3 SSE 11 13 6 7 1027.2 1027.1 0.0
28/02:30am 8.9 6.8 8.1 95 0.4 SSE 9 11 5 6 1027.3 1027.2 0.0
28/02:00am 9.9 8.0 9.1 95 0.4 S 9 11 5 6 1027.4 1027.3 0.0
28/01:30am 9.9 7.2 9.1 95 0.4 SSE 13 13 7 7 1027.4 1027.3 0.0
28/01:00am 10.6 7.9 8.9 89 0.8 SSE 13 15 7 8 1027.4 1027.3 0.0
28/12:30am 11.4 8.9 8.3 81 1.5 S 11 13 6 7 1027.6 1027.5 0.0
28/12:00am 12.0 8.8 8.5 79 1.7 S 15 15 8 8 1027.7 1027.6 0.0
 
Date/Time
CST
Temp
°C
App
Temp
°C
Dew
Point
°C
Rel
Hum
%
Delta-T
°C
Wind Press
QNH
hPa
Press
MSL
hPa
Rain since
9am
mm
Dir  Spd
km/h
Gust
km/h
Spd
kts
Gust
kts
27/11:30pm 12.3 9.1 8.6 78 1.8 S 15 17 8 9 1027.7 1027.6 0.0
27/11:00pm 12.1 9.0 8.8 80 1.6 S 15 19 8 10 1027.8 1027.7 0.0
27/10:30pm 11.8 8.9 8.3 79 1.7 SSE 13 15 7 8 1028.0 1027.9 0.0
27/10:00pm 12.6 9.3 8.1 74 2.2 SSE 15 15 8 8 1028.1 1028.0 0.0
27/09:30pm 13.2 10.6 7.9 70 2.6 S 11 13 6 7 1028.1 1028.0 0.0
27/09:00pm 14.2 10.8 7.5 64 3.3 S 15 20 8 11 1027.9 1027.8 0.0
27/08:30pm 14.1 11.0 7.4 64 3.3 S 13 15 7 8 1027.6 1027.5 0.0
27/08:00pm 14.5 11.4 7.3 62 3.5 SSW 13 17 7 9 1027.4 1027.3 0.0
27/07:30pm 15.2 11.3 7.0 58 4.0 S 17 20 9 11 1027.3 1027.2 0.0
27/07:00pm 15.5 12.3 6.8 56 4.3 SSW 13 17 7 9 1026.8 1026.7 0.0
27/06:30pm 16.1 11.6 6.3 52 4.8 S 19 26 10 14 1026.4 1026.3 0.0
27/06:00pm 16.8 11.6 5.7 48 5.3 S 22 28 12 15 1026.2 1026.1 0.0
27/05:30pm 17.6 12.6 4.6 42 6.2 S 20 30 11 16 1025.8 1025.7 0.0
27/05:00pm 18.3 13.2 4.1 39 6.7 S 20 26 11 14 1025.7 1025.6 0.0
27/04:30pm 19.0 13.9 4.0 37 7.1 SSE 20 28 11 15 1025.7 1025.6 0.0
27/04:00pm 19.0 14.0 3.6 36 7.3 S 19 28 10 15 1025.7 1025.6 0.0
27/03:30pm 18.7 14.4 3.3 36 7.2 SSW 15 26 8 14 1026.0 1025.9 0.0
27/03:00pm 18.5 13.2 2.8 35 7.2 SSE 20 30 11 16 1025.9 1025.8 0.0
27/02:30pm 18.4 13.6 2.7 35 7.2 SE 17 26 9 14 1026.1 1026.0 0.0
27/02:00pm 18.5 13.7 2.8 35 7.3 ESE 17 26 9 14 1026.4 1026.3 0.0
27/01:30pm 17.6 12.8 2.8 37 6.8 SSE 17 28 9 15 1026.6 1026.5 0.0
27/01:00pm 17.4 12.6 2.6 37 6.8 ESE 17 26 9 14 1027.1 1027.0 0.0

Other Formats:

Comma delimited format used in spreadsheet applications
http://www.bom.gov.au/fwo/IDS60801/IDS60801.95480.axf

JavaScript Object Notation format (JSON) in row-major order
http://www.bom.gov.au/fwo/IDS60801/IDS60801.95480.json